sensor_id;sensor_type;location;lat;lon;timestamp;pressure;altitude;pressure_sealevel;temperature;humidity
76598;BME280;65486;53.144;18.134;2023-08-24T00:00:33;101183.35;;;19.79;60.69
76598;BME280;65486;53.144;18.134;2023-08-24T00:03:20;101184.39;;;19.72;60.98
76598;BME280;65486;53.144;18.134;2023-08-24T00:05:49;101184.85;;;19.64;61.28
76598;BME280;65486;53.144;18.134;2023-08-24T00:08:18;101183.83;;;19.57;61.56
76598;BME280;65486;53.144;18.134;2023-08-24T00:10:46;101179.98;;;19.53;61.85
76598;BME280;65486;53.144;18.134;2023-08-24T00:13:14;101176.77;;;19.47;62.10
76598;BME280;65486;53.144;18.134;2023-08-24T00:15:41;101177.66;;;19.41;62.31
76598;BME280;65486;53.144;18.134;2023-08-24T00:18:09;101176.73;;;19.35;62.31
76598;BME280;65486;53.144;18.134;2023-08-24T00:20:36;101179.59;;;19.27;62.46
76598;BME280;65486;53.144;18.134;2023-08-24T00:23:10;101177.94;;;19.20;62.78
76598;BME280;65486;53.144;18.134;2023-08-24T00:25:37;101177.65;;;19.11;62.90
76598;BME280;65486;53.144;18.134;2023-08-24T00:28:05;101175.80;;;19.01;63.07
76598;BME280;65486;53.144;18.134;2023-08-24T00:30:37;101181.71;;;18.93;63.39
76598;BME280;65486;53.144;18.134;2023-08-24T00:33:05;101191.45;;;18.87;63.76
76598;BME280;65486;53.144;18.134;2023-08-24T00:35:34;101194.94;;;18.82;63.91
76598;BME280;65486;53.144;18.134;2023-08-24T00:38:03;101193.77;;;18.81;64.14
76598;BME280;65486;53.144;18.134;2023-08-24T00:40:30;101189.46;;;18.76;64.23
76598;BME280;65486;53.144;18.134;2023-08-24T00:43:10;101194.86;;;18.73;64.23
76598;BME280;65486;53.144;18.134;2023-08-24T00:45:39;101197.11;;;18.68;64.35
76598;BME280;65486;53.144;18.134;2023-08-24T00:48:07;101194.52;;;18.65;64.65
76598;BME280;65486;53.144;18.134;2023-08-24T00:50:36;101192.80;;;18.60;64.88
76598;BME280;65486;53.144;18.134;2023-08-24T00:53:04;101197.04;;;18.55;64.90
76598;BME280;65486;53.144;18.134;2023-08-24T00:55:31;101197.71;;;18.51;65.06
76598;BME280;65486;53.144;18.134;2023-08-24T00:57:59;101196.63;;;18.45;65.13
76598;BME280;65486;53.144;18.134;2023-08-24T01:00:27;101202.84;;;18.45;65.23
76598;BME280;65486;53.144;18.134;2023-08-24T01:02:53;101207.98;;;18.40;65.46
76598;BME280;65486;53.144;18.134;2023-08-24T01:05:23;101208.17;;;18.35;65.62
76598;BME280;65486;53.144;18.134;2023-08-24T01:07:52;101210.96;;;18.31;65.82
76598;BME280;65486;53.144;18.134;2023-08-24T01:10:19;101214.89;;;18.27;65.99
76598;BME280;65486;53.144;18.134;2023-08-24T01:12:59;101212.83;;;18.22;66.13
76598;BME280;65486;53.144;18.134;2023-08-24T01:15:36;101209.97;;;18.20;66.30
76598;BME280;65486;53.144;18.134;2023-08-24T01:18:11;101211.46;;;18.19;66.56
76598;BME280;65486;53.144;18.134;2023-08-24T01:20:42;101212.60;;;18.16;66.92
76598;BME280;65486;53.144;18.134;2023-08-24T01:28:36;101207.34;;;18.14;67.34
76598;BME280;65486;53.144;18.134;2023-08-24T01:31:05;101209.50;;;18.14;67.35
76598;BME280;65486;53.144;18.134;2023-08-24T01:33:32;101210.19;;;18.11;67.43
76598;BME280;65486;53.144;18.134;2023-08-24T01:35:59;101208.05;;;18.05;67.57
76598;BME280;65486;53.144;18.134;2023-08-24T01:38:28;101198.96;;;17.95;67.75
76598;BME280;65486;53.144;18.134;2023-08-24T01:41:14;101208.66;;;17.95;67.79
76598;BME280;65486;53.144;18.134;2023-08-24T01:43:46;101204.56;;;17.87;67.84
76598;BME280;65486;53.144;18.134;2023-08-24T01:46:17;101209.38;;;17.80;68.09
76598;BME280;65486;53.144;18.134;2023-08-24T01:48:48;101207.91;;;17.74;68.43
76598;BME280;65486;53.144;18.134;2023-08-24T01:51:15;101206.73;;;17.70;68.63
76598;BME280;65486;53.144;18.134;2023-08-24T01:53:44;101206.60;;;17.63;68.62
76598;BME280;65486;53.144;18.134;2023-08-24T01:56:13;101208.30;;;17.54;68.75
76598;BME280;65486;53.144;18.134;2023-08-24T01:58:40;101207.05;;;17.45;69.06
76598;BME280;65486;53.144;18.134;2023-08-24T02:01:10;101205.37;;;17.36;69.14
76598;BME280;65486;53.144;18.134;2023-08-24T02:03:39;101210.33;;;17.29;69.28
76598;BME280;65486;53.144;18.134;2023-08-24T02:06:07;101212.98;;;17.23;69.67
76598;BME280;65486;53.144;18.134;2023-08-24T02:08:34;101215.40;;;17.21;70.02
76598;BME280;65486;53.144;18.134;2023-08-24T02:11:03;101212.08;;;17.19;69.97
76598;BME280;65486;53.144;18.134;2023-08-24T02:13:33;101213.66;;;17.13;70.06
76598;BME280;65486;53.144;18.134;2023-08-24T02:16:07;101214.07;;;17.07;70.43
76598;BME280;65486;53.144;18.134;2023-08-24T02:18:36;101212.08;;;17.01;70.71
76598;BME280;65486;53.144;18.134;2023-08-24T02:21:11;101212.44;;;16.99;70.79
76598;BME280;65486;53.144;18.134;2023-08-24T02:23:42;101210.79;;;16.93;70.80
76598;BME280;65486;53.144;18.134;2023-08-24T02:26:10;101208.91;;;16.87;71.01
76598;BME280;65486;53.144;18.134;2023-08-24T02:28:38;101209.91;;;16.80;71.15
76598;BME280;65486;53.144;18.134;2023-08-24T02:31:07;101208.36;;;16.71;71.19
76598;BME280;65486;53.144;18.134;2023-08-24T02:33:35;101198.26;;;16.57;71.34
76598;BME280;65486;53.144;18.134;2023-08-24T02:36:04;101206.84;;;16.56;71.52
76598;BME280;65486;53.144;18.134;2023-08-24T02:38:33;101204.88;;;16.49;71.67
76598;BME280;65486;53.144;18.134;2023-08-24T02:41:05;101203.53;;;16.42;71.81
76598;BME280;65486;53.144;18.134;2023-08-24T02:43:34;101206.00;;;16.37;72.38
76598;BME280;65486;53.144;18.134;2023-08-24T02:46:03;101207.36;;;16.35;72.58
76598;BME280;65486;53.144;18.134;2023-08-24T02:48:32;101206.21;;;16.36;73.08
76598;BME280;65486;53.144;18.134;2023-08-24T02:51:02;101210.14;;;16.35;72.77
76598;BME280;65486;53.144;18.134;2023-08-24T02:53:30;101211.34;;;16.34;73.01
76598;BME280;65486;53.144;18.134;2023-08-24T02:55:57;101212.08;;;16.34;73.07
76598;BME280;65486;53.144;18.134;2023-08-24T02:58:25;101211.08;;;16.35;73.11
76598;BME280;65486;53.144;18.134;2023-08-24T03:00:53;101207.72;;;16.37;73.28
76598;BME280;65486;53.144;18.134;2023-08-24T03:03:20;101207.23;;;16.40;73.37
76598;BME280;65486;53.144;18.134;2023-08-24T03:06:00;101205.19;;;16.42;73.21
76598;BME280;65486;53.144;18.134;2023-08-24T03:08:30;101208.65;;;16.42;73.23
76598;BME280;65486;53.144;18.134;2023-08-24T03:10:58;101205.70;;;16.42;73.37
76598;BME280;65486;53.144;18.134;2023-08-24T03:13:26;101204.02;;;16.45;73.46
76598;BME280;65486;53.144;18.134;2023-08-24T03:15:55;101200.69;;;16.48;73.38
76598;BME280;65486;53.144;18.134;2023-08-24T03:18:24;101198.67;;;16.50;73.50
76598;BME280;65486;53.144;18.134;2023-08-24T03:20:51;101206.98;;;16.50;73.61
76598;BME280;65486;53.144;18.134;2023-08-24T03:23:18;101209.23;;;16.52;73.71
76598;BME280;65486;53.144;18.134;2023-08-24T03:25:45;101209.17;;;16.55;73.69
76598;BME280;65486;53.144;18.134;2023-08-24T03:28:14;101216.63;;;16.58;73.70
76598;BME280;65486;53.144;18.134;2023-08-24T03:30:50;101211.93;;;16.62;73.56
76598;BME280;65486;53.144;18.134;2023-08-24T03:33:18;101208.89;;;16.66;73.76
76598;BME280;65486;53.144;18.134;2023-08-24T03:35:46;101207.80;;;16.68;73.66
76598;BME280;65486;53.144;18.134;2023-08-24T03:38:14;101205.25;;;16.69;73.78
76598;BME280;65486;53.144;18.134;2023-08-24T03:40:42;101205.27;;;16.70;73.89
76598;BME280;65486;53.144;18.134;2023-08-24T03:43:10;101202.09;;;16.72;73.87
76598;BME280;65486;53.144;18.134;2023-08-24T03:45:37;101200.08;;;16.75;73.58
76598;BME280;65486;53.144;18.134;2023-08-24T03:48:06;101203.90;;;16.78;73.75
76598;BME280;65486;53.144;18.134;2023-08-24T03:50:37;101202.10;;;16.80;73.64
76598;BME280;65486;53.144;18.134;2023-08-24T03:53:06;101197.73;;;16.81;73.65
76598;BME280;65486;53.144;18.134;2023-08-24T03:55:34;101205.77;;;16.82;73.59
76598;BME280;65486;53.144;18.134;2023-08-24T03:58:01;101206.99;;;16.82;73.70
76598;BME280;65486;53.144;18.134;2023-08-24T04:00:30;101204.44;;;16.84;73.69
76598;BME280;65486;53.144;18.134;2023-08-24T04:02:59;101197.89;;;16.85;73.59
76598;BME280;65486;53.144;18.134;2023-08-24T04:05:26;101204.73;;;16.84;73.74
76598;BME280;65486;53.144;18.134;2023-08-24T04:07:54;101206.33;;;16.86;73.72
76598;BME280;65486;53.144;18.134;2023-08-24T04:10:22;101208.85;;;16.87;73.76
76598;BME280;65486;53.144;18.134;2023-08-24T04:12:51;101209.55;;;16.90;73.72
76598;BME280;65486;53.144;18.134;2023-08-24T04:15:18;101210.66;;;16.92;73.77
76598;BME280;65486;53.144;18.134;2023-08-24T04:17:47;101212.71;;;16.95;73.69
76598;BME280;65486;53.144;18.134;2023-08-24T04:20:15;101223.67;;;16.97;73.88
76598;BME280;65486;53.144;18.134;2023-08-24T04:22:43;101222.34;;;17.01;73.56
76598;BME280;65486;53.144;18.134;2023-08-24T04:25:11;101224.41;;;17.02;73.61
76598;BME280;65486;53.144;18.134;2023-08-24T04:27:38;101226.80;;;17.05;73.57
76598;BME280;65486;53.144;18.134;2023-08-24T04:30:05;101228.19;;;17.08;73.47
76598;BME280;65486;53.144;18.134;2023-08-24T04:32:32;101229.19;;;17.11;73.40
76598;BME280;65486;53.144;18.134;2023-08-24T04:34:59;101227.30;;;17.16;73.35
76598;BME280;65486;53.144;18.134;2023-08-24T04:37:26;101225.17;;;17.22;73.25
76598;BME280;65486;53.144;18.134;2023-08-24T04:39:53;101226.97;;;17.26;73.09
76598;BME280;65486;53.144;18.134;2023-08-24T04:42:22;101222.52;;;17.31;73.10
76598;BME280;65486;53.144;18.134;2023-08-24T04:44:52;101218.20;;;17.33;72.92
76598;BME280;65486;53.144;18.134;2023-08-24T04:47:20;101219.72;;;17.37;72.85
76598;BME280;65486;53.144;18.134;2023-08-24T04:49:48;101212.54;;;17.42;72.74
76598;BME280;65486;53.144;18.134;2023-08-24T04:52:15;101209.88;;;17.48;72.65
76598;BME280;65486;53.144;18.134;2023-08-24T04:54:44;101208.63;;;17.54;72.42
76598;BME280;65486;53.144;18.134;2023-08-24T04:57:14;101209.47;;;17.61;72.33
76598;BME280;65486;53.144;18.134;2023-08-24T04:59:41;101206.19;;;17.70;72.17
76598;BME280;65486;53.144;18.134;2023-08-24T05:02:15;101209.98;;;17.80;71.97
76598;BME280;65486;53.144;18.134;2023-08-24T05:04:42;101213.73;;;17.88;71.69
76598;BME280;65486;53.144;18.134;2023-08-24T05:07:10;101212.35;;;17.95;71.52
76598;BME280;65486;53.144;18.134;2023-08-24T05:09:37;101217.56;;;18.06;71.30
76598;BME280;65486;53.144;18.134;2023-08-24T05:12:05;101218.38;;;18.18;70.97
76598;BME280;65486;53.144;18.134;2023-08-24T05:14:33;101219.34;;;18.35;70.65
76598;BME280;65486;53.144;18.134;2023-08-24T05:17:02;101221.44;;;18.53;70.31
76598;BME280;65486;53.144;18.134;2023-08-24T05:19:30;101226.17;;;18.75;70.02
76598;BME280;65486;53.144;18.134;2023-08-24T05:21:58;101224.23;;;18.97;69.56
76598;BME280;65486;53.144;18.134;2023-08-24T05:24:26;101227.55;;;19.21;68.99
76598;BME280;65486;53.144;18.134;2023-08-24T05:26:53;101228.77;;;19.36;68.40
76598;BME280;65486;53.144;18.134;2023-08-24T05:29:22;101229.08;;;19.41;68.07
76598;BME280;65486;53.144;18.134;2023-08-24T05:31:49;101231.55;;;19.43;67.88
76598;BME280;65486;53.144;18.134;2023-08-24T05:34:16;101232.44;;;19.46;67.78
76598;BME280;65486;53.144;18.134;2023-08-24T05:36:44;101233.29;;;19.50;67.38
76598;BME280;65486;53.144;18.134;2023-08-24T05:39:12;101228.72;;;19.51;67.29
76598;BME280;65486;53.144;18.134;2023-08-24T05:41:39;101230.36;;;19.53;67.33
76598;BME280;65486;53.144;18.134;2023-08-24T05:44:07;101233.17;;;19.58;67.26
76598;BME280;65486;53.144;18.134;2023-08-24T05:46:35;101234.45;;;19.68;67.07
76598;BME280;65486;53.144;18.134;2023-08-24T05:49:02;101233.61;;;19.79;66.76
76598;BME280;65486;53.144;18.134;2023-08-24T05:51:29;101237.40;;;19.83;66.66
76598;BME280;65486;53.144;18.134;2023-08-24T05:53:57;101237.41;;;19.89;66.28
76598;BME280;65486;53.144;18.134;2023-08-24T05:56:28;101232.32;;;19.91;66.09
76598;BME280;65486;53.144;18.134;2023-08-24T05:58:58;101236.85;;;20.04;65.77
76598;BME280;65486;53.144;18.134;2023-08-24T06:01:25;101232.31;;;20.19;65.59
76598;BME280;65486;53.144;18.134;2023-08-24T06:03:52;101232.95;;;20.36;64.96
76598;BME280;65486;53.144;18.134;2023-08-24T06:06:19;101232.48;;;20.57;64.37
76598;BME280;65486;53.144;18.134;2023-08-24T06:08:46;101235.81;;;20.79;63.93
76598;BME280;65486;53.144;18.134;2023-08-24T06:11:13;101240.58;;;20.97;63.58
76598;BME280;65486;53.144;18.134;2023-08-24T06:13:40;101239.57;;;21.09;63.14
76598;BME280;65486;53.144;18.134;2023-08-24T06:16:07;101238.65;;;21.19;62.91
76598;BME280;65486;53.144;18.134;2023-08-24T06:18:37;101238.41;;;21.29;62.59
76598;BME280;65486;53.144;18.134;2023-08-24T06:21:05;101233.06;;;21.40;61.98
76598;BME280;65486;53.144;18.134;2023-08-24T06:23:32;101235.56;;;21.50;61.56
76598;BME280;65486;53.144;18.134;2023-08-24T06:25:59;101238.07;;;21.57;61.24
76598;BME280;65486;53.144;18.134;2023-08-24T06:28:28;101236.52;;;21.68;60.75
76598;BME280;65486;53.144;18.134;2023-08-24T06:30:56;101230.56;;;21.83;60.26
76598;BME280;65486;53.144;18.134;2023-08-24T06:33:32;101227.70;;;22.03;59.71
76598;BME280;65486;53.144;18.134;2023-08-24T06:36:01;101224.61;;;22.27;59.03
76598;BME280;65486;53.144;18.134;2023-08-24T06:38:28;101229.02;;;22.56;58.53
76598;BME280;65486;53.144;18.134;2023-08-24T06:40:57;101230.04;;;22.83;57.59
76598;BME280;65486;53.144;18.134;2023-08-24T06:43:27;101233.27;;;23.07;56.68
76598;BME280;65486;53.144;18.134;2023-08-24T06:45:55;101231.52;;;23.26;55.66
76598;BME280;65486;53.144;18.134;2023-08-24T06:48:23;101236.26;;;23.41;55.21
76598;BME280;65486;53.144;18.134;2023-08-24T06:50:52;101240.05;;;23.58;54.83
76598;BME280;65486;53.144;18.134;2023-08-24T06:53:19;101231.89;;;23.73;53.25
76598;BME280;65486;53.144;18.134;2023-08-24T06:55:46;101236.85;;;23.95;51.46
76598;BME280;65486;53.144;18.134;2023-08-24T06:58:13;101238.85;;;24.11;51.56
76598;BME280;65486;53.144;18.134;2023-08-24T07:00:41;101236.91;;;24.35;51.28
76598;BME280;65486;53.144;18.134;2023-08-24T07:03:08;101235.54;;;24.62;50.28
76598;BME280;65486;53.144;18.134;2023-08-24T07:05:35;101233.06;;;24.73;49.75
76598;BME280;65486;53.144;18.134;2023-08-24T07:08:04;101245.10;;;24.87;49.46
76598;BME280;65486;53.144;18.134;2023-08-24T07:10:32;101242.10;;;24.98;48.71
76598;BME280;65486;53.144;18.134;2023-08-24T07:13:00;101241.34;;;25.13;48.04
76598;BME280;65486;53.144;18.134;2023-08-24T07:15:27;101241.96;;;25.47;47.66
76598;BME280;65486;53.144;18.134;2023-08-24T07:17:55;101245.95;;;26.20;46.59
76598;BME280;65486;53.144;18.134;2023-08-24T07:20:23;101235.57;;;26.80;45.37
76598;BME280;65486;53.144;18.134;2023-08-24T07:22:51;101243.46;;;27.51;43.82
76598;BME280;65486;53.144;18.134;2023-08-24T07:25:22;101249.53;;;27.85;42.49
76598;BME280;65486;53.144;18.134;2023-08-24T07:27:50;101247.05;;;27.86;42.72
76598;BME280;65486;53.144;18.134;2023-08-24T07:30:18;101244.30;;;27.83;41.43
76598;BME280;65486;53.144;18.134;2023-08-24T07:32:48;101244.57;;;28.10;41.11
76598;BME280;65486;53.144;18.134;2023-08-24T07:35:15;101242.08;;;28.19;40.75
76598;BME280;65486;53.144;18.134;2023-08-24T07:37:43;101246.09;;;27.98;39.39
76598;BME280;65486;53.144;18.134;2023-08-24T07:40:11;101247.58;;;27.60;39.85
76598;BME280;65486;53.144;18.134;2023-08-24T07:42:46;101248.83;;;27.25;39.91
76598;BME280;65486;53.144;18.134;2023-08-24T07:45:14;101251.89;;;26.98;40.48
76598;BME280;65486;53.144;18.134;2023-08-24T07:47:43;101247.75;;;26.81;41.05
76598;BME280;65486;53.144;18.134;2023-08-24T07:50:11;101243.46;;;26.78;41.15
76598;BME280;65486;53.144;18.134;2023-08-24T07:52:40;101244.50;;;26.78;40.93
76598;BME280;65486;53.144;18.134;2023-08-24T07:55:08;101240.16;;;26.68;40.78
76598;BME280;65486;53.144;18.134;2023-08-24T07:57:39;101245.15;;;26.65;41.15
76598;BME280;65486;53.144;18.134;2023-08-24T08:00:07;101246.52;;;26.93;40.55
76598;BME280;65486;53.144;18.134;2023-08-24T08:02:45;101244.38;;;27.22;40.16
76598;BME280;65486;53.144;18.134;2023-08-24T08:05:14;101247.84;;;27.39;39.85
76598;BME280;65486;53.144;18.134;2023-08-24T08:07:43;101252.09;;;27.54;39.78
76598;BME280;65486;53.144;18.134;2023-08-24T08:10:10;101253.21;;;27.77;39.42
76598;BME280;65486;53.144;18.134;2023-08-24T08:12:38;101252.80;;;27.98;38.62
76598;BME280;65486;53.144;18.134;2023-08-24T08:15:06;101249.69;;;28.19;38.28
76598;BME280;65486;53.144;18.134;2023-08-24T08:17:35;101250.46;;;28.33;37.32
76598;BME280;65486;53.144;18.134;2023-08-24T08:20:05;101254.60;;;28.42;37.23
76598;BME280;65486;53.144;18.134;2023-08-24T08:22:32;101249.96;;;28.40;36.88
76598;BME280;65486;53.144;18.134;2023-08-24T08:25:05;101248.87;;;28.47;36.59
76598;BME280;65486;53.144;18.134;2023-08-24T08:27:33;101249.83;;;28.57;36.35
76598;BME280;65486;53.144;18.134;2023-08-24T08:30:05;101247.67;;;28.71;36.42
76598;BME280;65486;53.144;18.134;2023-08-24T08:32:33;101248.96;;;28.88;36.21
76598;BME280;65486;53.144;18.134;2023-08-24T08:35:02;101243.23;;;28.93;35.81
76598;BME280;65486;53.144;18.134;2023-08-24T08:37:32;101252.72;;;29.12;35.24
76598;BME280;65486;53.144;18.134;2023-08-24T08:40:11;101252.91;;;29.31;35.20
76598;BME280;65486;53.144;18.134;2023-08-24T08:42:41;101253.45;;;29.51;35.12
76598;BME280;65486;53.144;18.134;2023-08-24T08:45:13;101252.40;;;29.62;34.09
76598;BME280;65486;53.144;18.134;2023-08-24T08:47:42;101251.61;;;29.59;34.00
76598;BME280;65486;53.144;18.134;2023-08-24T08:50:10;101256.73;;;29.57;34.15
76598;BME280;65486;53.144;18.134;2023-08-24T08:52:38;101256.48;;;29.52;34.37
76598;BME280;65486;53.144;18.134;2023-08-24T08:55:05;101254.39;;;29.42;34.38
76598;BME280;65486;53.144;18.134;2023-08-24T08:57:37;101259.78;;;29.42;34.25
76598;BME280;65486;53.144;18.134;2023-08-24T09:00:11;101253.17;;;29.45;33.67
76598;BME280;65486;53.144;18.134;2023-08-24T09:02:43;101255.24;;;29.42;33.87
76598;BME280;65486;53.144;18.134;2023-08-24T09:05:18;101257.46;;;29.48;33.73
76598;BME280;65486;53.144;18.134;2023-08-24T09:07:54;101255.66;;;29.59;33.59
76598;BME280;65486;53.144;18.134;2023-08-24T09:10:24;101254.89;;;29.71;33.52
76598;BME280;65486;53.144;18.134;2023-08-24T09:12:51;101250.55;;;29.67;33.12
76598;BME280;65486;53.144;18.134;2023-08-24T09:15:25;101252.52;;;29.65;33.26
76598;BME280;65486;53.144;18.134;2023-08-24T09:17:58;101252.16;;;29.70;33.17
76598;BME280;65486;53.144;18.134;2023-08-24T09:20:27;101252.70;;;29.71;32.89
76598;BME280;65486;53.144;18.134;2023-08-24T09:23:00;101248.70;;;29.77;33.06
76598;BME280;65486;53.144;18.134;2023-08-24T09:25:30;101246.34;;;29.87;32.78
76598;BME280;65486;53.144;18.134;2023-08-24T09:28:03;101242.45;;;30.12;32.68
76598;BME280;65486;53.144;18.134;2023-08-24T09:30:35;101238.98;;;30.36;31.41
76598;BME280;65486;53.144;18.134;2023-08-24T09:33:12;101231.45;;;30.63;31.01
76598;BME280;65486;53.144;18.134;2023-08-24T09:35:42;101232.48;;;31.00;30.92
76598;BME280;65486;53.144;18.134;2023-08-24T09:38:22;101230.23;;;31.53;30.50
76598;BME280;65486;53.144;18.134;2023-08-24T09:40:54;101235.59;;;32.14;29.89
76598;BME280;65486;53.144;18.134;2023-08-24T09:43:30;101227.48;;;32.77;29.08
76598;BME280;65486;53.144;18.134;2023-08-24T09:45:57;101226.70;;;33.37;28.28
76598;BME280;65486;53.144;18.134;2023-08-24T09:48:25;101229.45;;;33.99;27.24
76598;BME280;65486;53.144;18.134;2023-08-24T09:51:08;101228.88;;;34.27;26.73
76598;BME280;65486;53.144;18.134;2023-08-24T09:53:37;101233.46;;;34.55;26.02
76598;BME280;65486;53.144;18.134;2023-08-24T09:56:12;101228.08;;;35.03;25.49
76598;BME280;65486;53.144;18.134;2023-08-24T09:58:41;101224.94;;;35.50;24.74
76598;BME280;65486;53.144;18.134;2023-08-24T10:01:12;101221.37;;;35.19;24.22
76598;BME280;65486;53.144;18.134;2023-08-24T10:03:41;101219.32;;;35.03;24.27
76598;BME280;65486;53.144;18.134;2023-08-24T10:06:11;101219.39;;;35.07;24.00
76598;BME280;65486;53.144;18.134;2023-08-24T10:08:43;101216.69;;;35.31;23.89
76598;BME280;65486;53.144;18.134;2023-08-24T10:11:16;101213.52;;;35.57;23.70
76598;BME280;65486;53.144;18.134;2023-08-24T10:14:07;101208.14;;;35.90;22.86
76598;BME280;65486;53.144;18.134;2023-08-24T10:16:37;101203.05;;;36.24;23.23
76598;BME280;65486;53.144;18.134;2023-08-24T10:19:07;101195.73;;;35.75;23.23
76598;BME280;65486;53.144;18.134;2023-08-24T10:21:37;101198.16;;;35.34;23.64
76598;BME280;65486;53.144;18.134;2023-08-24T10:24:04;101199.02;;;34.78;24.23
76598;BME280;65486;53.144;18.134;2023-08-24T10:26:33;101203.23;;;34.33;24.42
76598;BME280;65486;53.144;18.134;2023-08-24T10:29:01;101197.59;;;33.84;24.93
76598;BME280;65486;53.144;18.134;2023-08-24T10:31:37;101195.15;;;33.45;25.63
76598;BME280;65486;53.144;18.134;2023-08-24T10:34:06;101190.39;;;33.29;26.02
76598;BME280;65486;53.144;18.134;2023-08-24T10:36:34;101178.55;;;33.17;26.24
76598;BME280;65486;53.144;18.134;2023-08-24T10:39:06;101188.17;;;33.31;26.35
76598;BME280;65486;53.144;18.134;2023-08-24T10:41:51;101187.08;;;33.28;26.30
76598;BME280;65486;53.144;18.134;2023-08-24T10:44:34;101181.10;;;33.18;26.63
76598;BME280;65486;53.144;18.134;2023-08-24T10:47:19;101175.36;;;33.32;26.62
76598;BME280;65486;53.144;18.134;2023-08-24T10:52:32;101175.97;;;33.52;26.59
76598;BME280;65486;53.144;18.134;2023-08-24T10:55:01;101174.02;;;33.90;26.42
76598;BME280;65486;53.144;18.134;2023-08-24T10:57:37;101173.61;;;34.06;25.97
76598;BME280;65486;53.144;18.134;2023-08-24T11:00:13;101166.80;;;33.92;26.00
76598;BME280;65486;53.144;18.134;2023-08-24T11:02:47;101165.66;;;33.89;25.98
76598;BME280;65486;53.144;18.134;2023-08-24T11:05:29;101165.21;;;34.41;25.21
76598;BME280;65486;53.144;18.134;2023-08-24T11:08:18;101162.59;;;34.70;24.88
76598;BME280;65486;53.144;18.134;2023-08-24T11:11:21;101157.58;;;34.81;24.58
76598;BME280;65486;53.144;18.134;2023-08-24T11:14:16;101149.42;;;34.34;25.20
76598;BME280;65486;53.144;18.134;2023-08-24T11:16:45;101148.05;;;34.99;24.31
76598;BME280;65486;53.144;18.134;2023-08-24T11:19:17;101150.11;;;35.15;24.61
76598;BME280;65486;53.144;18.134;2023-08-24T11:22:05;101155.23;;;34.86;24.69
76598;BME280;65486;53.144;18.134;2023-08-24T11:24:38;101149.66;;;34.89;24.41
76598;BME280;65486;53.144;18.134;2023-08-24T11:27:08;101153.83;;;35.17;24.15
76598;BME280;65486;53.144;18.134;2023-08-24T11:29:38;101153.90;;;35.21;24.09
76598;BME280;65486;53.144;18.134;2023-08-24T11:32:07;101145.83;;;35.40;23.65
76598;BME280;65486;53.144;18.134;2023-08-24T11:34:34;101137.56;;;35.27;23.99
76598;BME280;65486;53.144;18.134;2023-08-24T11:37:19;101135.14;;;34.96;24.07
76598;BME280;65486;53.144;18.134;2023-08-24T11:39:52;101135.38;;;34.50;24.20
76598;BME280;65486;53.144;18.134;2023-08-24T11:42:19;101141.78;;;33.76;25.11
76598;BME280;65486;53.144;18.134;2023-08-24T11:44:48;101138.99;;;33.14;25.96
76598;BME280;65486;53.144;18.134;2023-08-24T11:47:19;101138.42;;;32.88;26.24
76598;BME280;65486;53.144;18.134;2023-08-24T11:49:46;101133.95;;;32.37;26.86
76598;BME280;65486;53.144;18.134;2023-08-24T11:52:13;101132.95;;;31.86;27.43
76598;BME280;65486;53.144;18.134;2023-08-24T11:54:42;101128.16;;;31.49;27.75
76598;BME280;65486;53.144;18.134;2023-08-24T11:57:13;101126.67;;;31.11;28.34
76598;BME280;65486;53.144;18.134;2023-08-24T11:59:43;101122.81;;;31.01;28.32
76598;BME280;65486;53.144;18.134;2023-08-24T12:02:11;101120.26;;;30.98;28.62
76598;BME280;65486;53.144;18.134;2023-08-24T12:04:59;101116.70;;;30.88;28.83
76598;BME280;65486;53.144;18.134;2023-08-24T12:07:30;101117.29;;;30.68;29.24
76598;BME280;65486;53.144;18.134;2023-08-24T12:10:02;101118.05;;;30.56;29.22
76598;BME280;65486;53.144;18.134;2023-08-24T12:12:30;101111.84;;;30.60;29.54
76598;BME280;65486;53.144;18.134;2023-08-24T12:14:57;101108.15;;;30.55;29.16
76598;BME280;65486;53.144;18.134;2023-08-24T12:17:24;101108.42;;;30.49;29.42
76598;BME280;65486;53.144;18.134;2023-08-24T12:19:58;101105.91;;;30.49;29.81
76598;BME280;65486;53.144;18.134;2023-08-24T12:22:29;101097.83;;;30.46;30.14
76598;BME280;65486;53.144;18.134;2023-08-24T12:24:57;101100.05;;;30.49;30.07
76598;BME280;65486;53.144;18.134;2023-08-24T12:27:27;101100.65;;;30.40;30.18
76598;BME280;65486;53.144;18.134;2023-08-24T12:30:00;101091.33;;;30.26;30.00
76598;BME280;65486;53.144;18.134;2023-08-24T12:32:42;101099.65;;;30.35;30.27
76598;BME280;65486;53.144;18.134;2023-08-24T12:35:10;101094.39;;;30.46;30.31
76598;BME280;65486;53.144;18.134;2023-08-24T12:37:39;101097.07;;;30.46;30.13
76598;BME280;65486;53.144;18.134;2023-08-24T12:40:06;101090.02;;;30.50;30.18
76598;BME280;65486;53.144;18.134;2023-08-24T12:42:35;101088.21;;;30.50;29.66
76598;BME280;65486;53.144;18.134;2023-08-24T12:45:05;101086.25;;;30.46;29.53
76598;BME280;65486;53.144;18.134;2023-08-24T12:47:34;101084.60;;;30.51;29.57
76598;BME280;65486;53.144;18.134;2023-08-24T12:50:05;101081.39;;;30.46;29.19
76598;BME280;65486;53.144;18.134;2023-08-24T12:52:35;101077.39;;;30.31;29.41
76598;BME280;65486;53.144;18.134;2023-08-24T12:55:03;101077.23;;;30.08;29.31
76598;BME280;65486;53.144;18.134;2023-08-24T12:57:31;101073.17;;;29.94;29.39
76598;BME280;65486;53.144;18.134;2023-08-24T12:59:58;101073.33;;;29.79;29.60
76598;BME280;65486;53.144;18.134;2023-08-24T13:02:25;101071.05;;;29.64;29.73